Time;durP1;ratioP1;P1;durP2;ratioP2;P2;SDS_P1;SDS_P2;PMS_P1;PMS_P2;Temp;Humidity;BMP_temperature;BMP_pressure;BME280_temperature;BME280_humidity;BME280_pressure;Samples;Min_cycle;Max_cycle;Signal;HPM_P1;HPM_P2
2022/09/03 00:01:43;;;;;;;9.10;4.50;;;;;;;10.39;74.84;96900.25;107810;1269;22593;-77
2022/09/03 00:04:22;;;;;;;8.40;4.30;;;;;;;10.46;74.85;96898.91;107793;1269;25264;-77
2022/09/03 00:07:01;;;;;;;8.30;5.00;;;;;;;10.45;74.88;96906.08;107779;1269;22564;-77
2022/09/03 00:09:39;;;;;;;8.90;4.30;;;;;;;10.28;75.34;96902.93;107754;1269;28872;-77
2022/09/03 00:12:14;;;;;;;8.00;3.90;;;;;;;10.14;75.95;96905.73;107801;1269;24363;-77
2022/09/03 00:14:50;;;;;;;7.50;3.90;;;;;;;10.09;76.30;96903.61;107842;1269;25363;-77
2022/09/03 00:17:26;;;;;;;7.80;4.30;;;;;;;10.08;76.33;96905.63;107813;1269;25255;-77
2022/09/03 00:20:03;;;;;;;6.20;3.60;;;;;;;9.99;76.48;96900.67;107784;1269;30721;-77
2022/09/03 00:22:39;;;;;;;8.90;4.10;;;;;;;10.01;76.50;96901.10;107904;1269;22520;-77
2022/09/03 00:25:15;;;;;;;8.00;3.80;;;;;;;10.02;76.63;96894.75;107932;1269;22550;-77
2022/09/03 00:27:51;;;;;;;8.60;4.10;;;;;;;10.04;76.70;96896.96;107923;1269;22643;-77
2022/09/03 00:30:26;;;;;;;7.00;4.20;;;;;;;10.06;76.83;96894.95;107868;1269;28280;-77
2022/09/03 00:33:04;;;;;;;9.20;4.30;;;;;;;10.05;76.83;96896.11;107960;1269;25139;-77
2022/09/03 00:35:41;;;;;;;10.90;4.40;;;;;;;9.94;76.88;96896.96;107952;1270;24273;-77
2022/09/03 00:38:12;;;;;;;11.80;5.20;;;;;;;9.95;77.08;96895.48;107935;1269;22524;-77
2022/09/03 00:41:05;;;;;;;12.00;5.40;;;;;;;9.99;77.09;96890.50;107850;1269;33563;-77
2022/09/03 00:43:56;;;;;;;11.00;4.60;;;;;;;9.90;76.99;96887.77;107904;1269;22550;-77
2022/09/03 00:46:37;;;;;;;8.40;4.40;;;;;;;9.78;77.22;96889.99;107912;1268;25419;-77
2022/09/03 00:49:32;;;;;;;8.20;4.40;;;;;;;9.74;77.58;96895.94;107844;1269;27730;-77
2022/09/03 00:52:14;;;;;;;10.50;4.60;;;;;;;9.80;77.65;96894.80;107865;1268;25400;-77
2022/09/03 00:54:56;;;;;;;7.20;4.30;;;;;;;9.81;77.62;96890.14;107922;1269;22527;-77
2022/09/03 00:57:38;;;;;;;7.60;4.20;;;;;;;9.79;77.62;96891.05;107937;1269;24163;-77
2022/09/03 01:00:13;;;;;;;6.50;3.40;;;;;;;9.81;77.67;96886.38;107863;1269;24513;-77
2022/09/03 01:02:57;;;;;;;7.20;4.00;;;;;;;9.78;77.63;96886.55;107828;1269;22761;-77
2022/09/03 01:05:42;;;;;;;6.90;4.20;;;;;;;9.79;77.64;96886.39;107929;1270;24560;-77
2022/09/03 01:08:35;;;;;;;7.70;4.50;;;;;;;9.78;77.47;96887.66;107904;1270;25364;-77
2022/09/03 01:11:19;;;;;;;9.20;4.10;;;;;;;9.81;77.65;96890.30;107900;1269;23595;-77
2022/09/03 01:13:55;;;;;;;12.80;5.10;;;;;;;9.77;77.58;96889.52;107917;1269;25437;-77
2022/09/03 01:16:36;;;;;;;13.70;6.30;;;;;;;9.69;77.69;96890.15;107919;1268;23454;-77
2022/09/03 01:19:14;;;;;;;;;;;;;;;9.59;77.95;96888.04;107841;1268;70615;-77
2022/09/03 01:22:18;;;;;;;8.10;4.00;;;;;;;9.57;77.90;96889.09;107806;1269;22553;-77
2022/09/03 01:25:12;;;;;;;6.80;3.70;;;;;;;9.54;77.99;96887.23;107819;1269;22609;-76
2022/09/03 01:27:52;;;;;;;6.10;3.40;;;;;;;9.56;78.20;96886.71;107810;1269;24391;-77
2022/09/03 01:30:23;;;;;;;6.20;3.80;;;;;;;9.59;77.96;96882.48;107728;1269;35190;-77
2022/09/03 01:33:02;;;;;;;8.30;4.80;;;;;;;9.58;77.78;96875.65;107845;1269;22534;-77
2022/09/03 01:35:38;;;;;;;11.70;5.10;;;;;;;9.46;77.97;96870.78;107830;1269;22571;-77
2022/09/03 01:38:22;;;;;;;11.40;5.50;;;;;;;9.36;78.01;96871.83;107814;1269;22525;-76
2022/09/03 01:44:03;;;;;;;7.10;4.10;;;;;;;9.21;78.38;96873.23;107887;1270;22551;-76
2022/09/03 01:46:39;;;;;;;7.70;4.10;;;;;;;9.13;78.52;96877.98;107967;1270;23067;-77
2022/09/03 01:49:21;;;;;;;7.20;4.30;;;;;;;9.13;78.81;96877.92;107776;1270;37786;-76
2022/09/03 01:52:02;;;;;;;8.70;4.70;;;;;;;9.17;79.02;96880.33;107927;1269;22543;-76
2022/09/03 01:54:50;;;;;;;8.00;4.00;;;;;;;9.24;79.25;96885.36;107901;1268;22553;-76
2022/09/03 01:57:55;;;;;;;6.70;4.10;;;;;;;9.34;79.41;96890.67;107866;1269;22534;-77
2022/09/03 02:00:30;;;;;;;6.70;4.10;;;;;;;9.44;79.44;96883.48;107605;1269;31112;-77
2022/09/03 02:03:05;;;;;;;5.90;4.40;;;;;;;9.53;79.78;96877.86;107815;1269;25421;-77
2022/09/03 02:05:37;;;;;;;8.50;4.30;;;;;;;9.58;79.84;96877.50;107801;1269;24524;-77
2022/09/03 02:08:10;;;;;;;6.50;4.20;;;;;;;9.56;80.08;96876.02;107838;1269;23699;-77
2022/09/03 02:10:44;;;;;;;9.60;4.60;;;;;;;9.65;80.37;96881.89;107768;1269;26721;-77
2022/09/03 02:13:20;;;;;;;8.50;4.20;;;;;;;9.69;80.36;96884.42;107750;1271;25506;-77
2022/09/03 02:15:52;;;;;;;14.50;6.00;;;;;;;9.58;80.51;96886.71;107737;1272;22528;-77
2022/09/03 02:18:29;;;;;;;8.20;4.20;;;;;;;9.54;80.95;96889.66;107826;1269;24246;-77
2022/09/03 02:21:02;;;;;;;7.40;4.10;;;;;;;9.45;81.00;96891.38;107736;1269;36793;-77
2022/09/03 02:23:33;;;;;;;6.80;4.40;;;;;;;9.47;81.21;96893.00;107807;1269;22564;-77
2022/09/03 02:26:07;;;;;;;6.30;4.30;;;;;;;9.55;81.60;96893.05;107809;1269;22546;-77
2022/09/03 02:28:38;;;;;;;8.90;4.70;;;;;;;9.56;81.89;96891.63;107774;1268;22653;-77
2022/09/03 02:31:09;;;;;;;10.80;4.80;;;;;;;9.65;82.00;96893.64;107768;1269;26408;-76
2022/09/03 02:33:43;;;;;;;7.70;4.60;;;;;;;9.76;81.93;96896.29;107844;1269;25326;-77
2022/09/03 02:36:18;;;;;;;9.80;5.40;;;;;;;9.87;82.11;96892.05;107811;1269;22693;-77
2022/09/03 02:38:49;;;;;;;9.40;5.00;;;;;;;9.99;82.21;96894.68;107827;1269;22548;-77
2022/09/03 02:41:20;;;;;;;8.70;4.80;;;;;;;10.08;81.80;96890.48;107786;1268;25602;-77
2022/09/03 02:43:55;;;;;;;8.70;5.00;;;;;;;10.16;81.56;96891.33;107853;1268;25405;-77
2022/09/03 02:46:29;;;;;;;7.40;4.70;;;;;;;10.19;81.69;96889.73;107878;1269;22612;-77
2022/09/03 02:49:00;;;;;;;7.10;4.50;;;;;;;10.20;81.68;96886.23;107884;1267;25219;-77
2022/09/03 02:51:36;;;;;;;6.80;4.60;;;;;;;10.18;81.53;96886.50;107903;1270;22524;-77
2022/09/03 02:54:07;;;;;;;7.50;4.50;;;;;;;10.11;81.58;96888.04;107882;1270;22965;-77
2022/09/03 02:56:39;;;;;;;9.40;4.70;;;;;;;10.10;81.81;96887.51;107854;1268;22653;-77
2022/09/03 02:59:10;;;;;;;7.60;4.50;;;;;;;10.16;82.16;96886.19;107690;1269;28253;-77
2022/09/03 03:01:42;;;;;;;8.00;5.00;;;;;;;10.25;82.32;96884.70;107844;1269;22536;-77
2022/09/03 03:04:13;;;;;;;7.50;4.40;;;;;;;10.32;82.25;96885.44;107844;1269;22599;-77
2022/09/03 03:06:44;;;;;;;8.10;4.90;;;;;;;10.39;82.20;96887.42;107866;1270;22533;-77
2022/09/03 03:09:15;;;;;;;7.30;4.20;;;;;;;10.46;82.34;96889.27;107832;1270;30918;-77
2022/09/03 03:11:50;;;;;;;8.60;4.90;;;;;;;10.53;82.34;96888.16;107813;1270;22650;-77
2022/09/03 03:14:21;;;;;;;9.60;4.80;;;;;;;10.57;82.24;96884.14;107833;1269;22541;-77
2022/09/03 03:16:52;;;;;;;7.60;4.20;;;;;;;10.58;82.28;96887.80;107805;1270;22540;-77
2022/09/03 03:19:24;;;;;;;6.50;4.10;;;;;;;10.54;82.26;96887.16;107669;1270;30436;-77
2022/09/03 03:21:55;;;;;;;6.80;4.10;;;;;;;10.54;82.60;96889.86;107852;1269;22534;-77
2022/09/03 03:24:26;;;;;;;5.90;4.00;;;;;;;10.58;82.88;96889.77;107804;1269;22521;-77
2022/09/03 03:26:58;;;;;;;7.20;4.40;;;;;;;10.60;82.82;96886.98;107815;1269;22525;-77
2022/09/03 03:29:29;;;;;;;7.50;4.10;;;;;;;10.62;82.90;96882.25;107780;1269;26700;-77
2022/09/03 03:32:00;;;;;;;7.80;4.70;;;;;;;10.63;82.70;96888.30;107929;1270;22521;-77
2022/09/03 03:34:31;;;;;;;5.60;3.60;;;;;;;10.64;82.44;96887.98;107920;1270;24014;-77
2022/09/03 03:37:04;;;;;;;7.60;3.90;;;;;;;10.64;81.90;96887.66;107952;1270;22531;-77
2022/09/03 03:39:35;;;;;;;7.80;4.20;;;;;;;10.65;81.64;96885.95;107880;1270;29599;-77
2022/09/03 03:42:07;;;;;;;8.20;4.50;;;;;;;10.63;81.56;96883.90;107884;1270;25331;-77
2022/09/03 03:44:38;;;;;;;8.70;4.90;;;;;;;10.62;81.58;96880.83;107867;1270;22538;-77
2022/09/03 03:47:09;;;;;;;6.10;4.20;;;;;;;10.57;81.83;96877.04;107852;1270;23001;-77
2022/09/03 03:49:40;;;;;;;7.30;4.30;;;;;;;10.54;81.58;96876.13;107791;1270;24357;-77
2022/09/03 03:52:11;;;;;;;6.90;4.70;;;;;;;10.52;81.49;96876.39;107896;1269;23115;-77
2022/09/03 03:54:43;;;;;;;7.00;4.30;;;;;;;10.54;81.56;96882.38;107907;1270;22522;-77
2022/09/03 03:57:14;;;;;;;10.70;4.90;;;;;;;10.55;81.52;96880.00;107904;1268;22699;-77
2022/09/03 03:59:45;;;;;;;7.20;4.90;;;;;;;10.55;81.51;96879.46;107811;1270;39655;-77
2022/09/03 04:02:18;;;;;;;7.20;4.70;;;;;;;10.55;81.50;96879.26;107871;1270;22525;-76
2022/09/03 04:04:49;;;;;;;7.80;4.80;;;;;;;10.54;81.38;96875.39;107930;1269;22787;-77
2022/09/03 04:07:21;;;;;;;9.10;5.30;;;;;;;10.52;81.37;96877.63;107919;1270;25426;-76
2022/09/03 04:09:52;;;;;;;8.30;5.00;;;;;;;10.49;81.61;96875.25;107848;1270;24950;-77
2022/09/03 04:12:23;;;;;;;9.00;4.80;;;;;;;10.46;81.82;96871.83;107900;1269;22553;-76
2022/09/03 04:14:54;;;;;;;8.50;5.00;;;;;;;10.51;82.04;96870.42;107943;1269;22604;-77
2022/09/03 04:17:25;;;;;;;8.60;4.60;;;;;;;10.57;81.90;96869.02;107907;1269;22571;-76
2022/09/03 04:19:56;;;;;;;8.50;5.00;;;;;;;10.63;81.66;96867.19;107835;1267;25344;-77
2022/09/03 04:22:28;;;;;;;9.30;4.70;;;;;;;10.67;81.47;96869.17;107889;1269;22609;-76
2022/09/03 04:24:59;;;;;;;6.70;4.40;;;;;;;10.72;81.48;96868.07;107893;1268;25270;-76
2022/09/03 04:27:30;;;;;;;6.70;4.60;;;;;;;10.76;81.22;96873.23;107881;1270;22545;-77
2022/09/03 04:30:01;;;;;;;6.50;4.10;;;;;;;10.79;81.18;96875.55;107873;1268;26939;-77
2022/09/03 04:35:22;;;;;;;8.10;4.90;;;;;;;10.88;80.91;96883.11;107923;1268;22525;-76
2022/09/03 04:37:54;;;;;;;9.90;4.70;;;;;;;10.88;80.69;96886.40;107923;1268;22528;-76
2022/09/03 04:40:25;;;;;;;8.70;4.90;;;;;;;10.90;80.81;96891.69;107862;1270;32709;-76
2022/09/03 04:43:00;;;;;;;7.60;4.40;;;;;;;10.91;80.70;96893.22;107795;1269;22648;-76
2022/09/03 04:45:31;;;;;;;10.10;4.70;;;;;;;10.95;80.74;96897.05;107910;1269;22541;-77
2022/09/03 04:48:03;;;;;;;8.80;4.80;;;;;;;10.95;80.54;96898.70;107920;1269;22545;-77
2022/09/03 04:50:35;;;;;;;7.20;4.30;;;;;;;10.97;80.58;96896.00;107835;1270;31386;-76
2022/09/03 04:53:07;;;;;;;9.00;5.20;;;;;;;10.98;80.56;96897.21;107948;1268;22522;-76
2022/09/03 04:55:39;;;;;;;9.90;4.80;;;;;;;10.93;80.42;96895.96;107897;1269;22547;-76
2022/09/03 04:58:10;;;;;;;10.10;5.10;;;;;;;10.88;80.46;96892.65;107887;1268;24424;-76
2022/09/03 05:00:41;;;;;;;8.60;4.90;;;;;;;10.81;80.71;96895.32;107836;1269;28300;-76
2022/09/03 05:03:12;;;;;;;9.10;5.00;;;;;;;10.77;80.82;96892.91;107878;1269;22745;-76
2022/09/03 05:05:51;;;;;;;6.90;4.50;;;;;;;10.83;81.16;96896.38;107926;1269;22623;-76
2022/09/03 05:08:22;;;;;;;7.20;4.30;;;;;;;10.92;81.47;96900.73;107882;1269;22546;-76
2022/09/03 05:11:00;;;;;;;8.10;4.80;;;;;;;11.02;81.44;96903.35;107855;1270;24352;-76
2022/09/03 05:13:32;;;;;;;7.70;4.70;;;;;;;11.09;81.23;96908.88;107945;1269;22587;-76
2022/09/03 05:16:05;;;;;;;9.80;4.80;;;;;;;11.13;81.02;96911.48;107909;1269;22521;-76
2022/09/03 05:18:37;;;;;;;8.70;4.80;;;;;;;11.17;81.14;96913.84;107908;1269;22776;-76
2022/09/03 05:21:10;;;;;;;11.00;5.20;;;;;;;11.23;80.86;96921.95;107830;1269;29302;-76
2022/09/03 05:23:43;;;;;;;7.50;4.70;;;;;;;11.28;80.95;96921.25;107975;1268;22528;-77
2022/09/03 05:26:16;;;;;;;8.20;4.60;;;;;;;11.33;80.76;96923.17;107920;1269;22534;-76
2022/09/03 05:28:48;;;;;;;7.20;4.50;;;;;;;11.37;80.62;96923.73;107730;1270;22569;-76
2022/09/03 05:31:21;;;;;;;6.80;4.50;;;;;;;11.42;80.61;96925.91;107815;1268;28106;-76
2022/09/03 05:33:57;;;;;;;7.40;4.50;;;;;;;11.45;80.51;96924.12;107940;1270;22528;-76
2022/09/03 05:36:30;;;;;;;7.50;5.10;;;;;;;11.44;80.41;96923.86;108014;1268;22544;-76
2022/09/03 05:39:02;;;;;;;6.90;4.80;;;;;;;11.39;80.33;96921.98;108004;1269;24705;-76
2022/09/03 05:41:33;;;;;;;6.70;4.60;;;;;;;11.35;80.44;96921.89;107976;1269;23350;-76
2022/09/03 05:44:05;;;;;;;9.90;4.50;;;;;;;11.35;80.56;96920.09;107894;1269;22613;-76
2022/09/03 05:46:37;;;;;;;7.10;4.40;;;;;;;11.29;80.42;96919.39;107888;1269;22536;-76
2022/09/03 05:49:10;;;;;;;8.50;4.70;;;;;;;11.23;80.63;96916.43;107817;1270;32404;-76
2022/09/03 05:51:42;;;;;;;8.90;4.90;;;;;;;11.15;80.82;96916.19;107718;1271;22526;-76
2022/09/03 05:54:13;;;;;;;7.90;4.60;;;;;;;11.12;81.13;96915.30;107907;1269;22541;-76
2022/09/03 05:56:44;;;;;;;10.40;5.30;;;;;;;11.13;81.37;96916.56;107872;1270;22563;-76
2022/09/03 05:59:15;;;;;;;8.60;4.80;;;;;;;11.10;81.58;96915.60;107823;1269;25754;-76
2022/09/03 06:01:48;;;;;;;10.80;5.40;;;;;;;11.12;81.71;96911.26;107891;1268;25362;-76
2022/09/03 06:04:20;;;;;;;7.40;4.70;;;;;;;11.12;81.52;96912.11;107856;1269;24335;-76
2022/09/03 06:06:52;;;;;;;7.00;4.70;;;;;;;11.13;81.59;96912.43;107889;1269;22528;-76
2022/09/03 06:09:24;;;;;;;7.50;4.80;;;;;;;11.13;81.64;96911.41;107799;1270;30166;-77
2022/09/03 06:11:55;;;;;;;9.70;5.40;;;;;;;11.13;81.73;96912.05;107896;1270;22523;-77
2022/09/03 06:14:26;;;;;;;8.40;5.20;;;;;;;11.18;81.81;96911.23;107910;1269;22642;-77
2022/09/03 06:16:58;;;;;;;7.10;4.90;;;;;;;11.21;81.98;96912.48;107920;1269;23247;-77
2022/09/03 06:19:29;;;;;;;7.90;4.90;;;;;;;11.23;82.03;96916.81;107864;1270;27244;-76
2022/09/03 06:22:00;;;;;;;9.10;5.00;;;;;;;11.25;82.15;96923.48;107944;1268;23293;-75
2022/09/03 06:24:31;;;;;;;9.80;5.90;;;;;;;11.26;82.15;96928.85;107925;1270;22614;-75
2022/09/03 06:27:03;;;;;;;8.50;5.70;;;;;;;11.29;82.25;96931.02;107928;1270;22534;-76
2022/09/03 06:29:35;;;;;;;13.20;7.10;;;;;;;11.33;82.21;96933.96;107834;1270;37883;-75
2022/09/03 06:32:07;;;;;;;9.70;6.00;;;;;;;11.34;82.00;96930.98;107939;1270;22685;-74
2022/09/03 06:34:38;;;;;;;7.90;4.70;;;;;;;11.34;82.06;96930.50;107748;1271;22724;-76
2022/09/03 06:37:09;;;;;;;8.20;5.30;;;;;;;11.35;82.30;96931.29;107914;1269;22546;-75
2022/09/03 06:39:41;;;;;;;7.60;4.50;;;;;;;11.43;82.39;96934.07;107932;1269;26709;-76
2022/09/03 06:42:12;;;;;;;8.10;5.00;;;;;;;11.42;82.29;96932.06;107942;1269;22636;-75
2022/09/03 06:44:44;;;;;;;7.30;4.50;;;;;;;11.40;82.48;96931.20;108004;1269;22537;-76
2022/09/03 06:47:16;;;;;;;8.10;5.00;;;;;;;11.42;82.79;96928.19;108045;1268;23279;-76
2022/09/03 06:49:47;;;;;;;5.90;4.30;;;;;;;11.51;83.08;96932.66;107996;1269;26806;-76
2022/09/03 06:52:18;;;;;;;6.40;4.60;;;;;;;11.54;82.97;96931.86;108019;1270;24324;-76
2022/09/03 06:54:50;;;;;;;7.40;4.60;;;;;;;11.59;83.05;96938.69;108019;1269;22616;-76
2022/09/03 06:57:21;;;;;;;7.30;5.00;;;;;;;11.65;83.03;96944.69;108003;1269;23266;-75
2022/09/03 06:59:54;;;;;;;9.30;5.00;;;;;;;11.70;83.24;96944.08;107941;1271;27880;-76
2022/09/03 07:02:25;;;;;;;8.10;5.10;;;;;;;11.72;82.94;96946.94;107972;1270;25349;-75
2022/09/03 07:04:57;;;;;;;8.70;4.60;;;;;;;11.70;82.93;96953.96;107923;1269;22530;-75
2022/09/03 07:07:28;;;;;;;6.90;4.80;;;;;;;11.67;83.20;96952.32;107931;1270;22568;-75
2022/09/03 07:09:59;;;;;;;7.80;4.80;;;;;;;11.62;82.93;96960.75;107845;1270;23326;-75
2022/09/03 07:12:36;;;;;;;8.00;4.90;;;;;;;11.60;83.08;96958.23;107914;1270;23325;-75
2022/09/03 07:15:09;;;;;;;7.40;4.90;;;;;;;11.66;83.46;96963.85;107879;1270;22536;-76
2022/09/03 07:17:40;;;;;;;7.10;4.40;;;;;;;11.72;83.37;96965.47;107928;1269;22760;-74
2022/09/03 07:20:12;;;;;;;9.10;4.70;;;;;;;11.84;83.39;96968.50;107749;1270;31094;-76
2022/09/03 07:22:43;;;;;;;6.00;4.70;;;;;;;11.97;83.47;96968.77;107910;1269;22575;-76
2022/09/03 07:25:14;;;;;;;8.50;4.70;;;;;;;12.07;83.18;96971.70;107866;1268;22536;-76
2022/09/03 07:27:47;;;;;;;7.70;4.70;;;;;;;12.19;82.96;96974.70;107912;1268;22519;-76
2022/09/03 07:30:19;;;;;;;7.40;4.80;;;;;;;12.29;82.88;96971.38;107805;1271;25603;-76
2022/09/03 07:32:52;;;;;;;7.70;5.20;;;;;;;12.30;82.19;96974.40;107893;1269;22551;-76
2022/09/03 07:35:26;;;;;;;8.50;4.90;;;;;;;12.18;82.09;96965.30;107899;1269;25276;-75
2022/09/03 07:37:58;;;;;;;7.50;4.70;;;;;;;12.13;82.18;96967.11;107894;1269;25352;-76
2022/09/03 07:40:32;;;;;;;8.00;4.60;;;;;;;12.10;82.35;96968.65;107794;1269;23662;-75
2022/09/03 07:43:03;;;;;;;21.50;9.00;;;;;;;12.17;82.46;96970.47;107732;1271;22564;-75
2022/09/03 07:45:36;;;;;;;7.40;4.90;;;;;;;12.25;82.72;96971.95;107883;1270;24037;-76
2022/09/03 07:48:07;;;;;;;9.40;5.30;;;;;;;12.38;82.97;96971.60;107852;1270;22543;-74
2022/09/03 07:50:39;;;;;;;7.00;4.30;;;;;;;12.54;83.00;96968.58;107836;1270;25645;-76
2022/09/03 07:53:10;;;;;;;6.30;4.40;;;;;;;12.64;82.46;96969.37;107842;1271;22549;-76
2022/09/03 07:55:42;;;;;;;8.90;4.50;;;;;;;12.71;82.62;96973.14;107906;1270;24198;-76
2022/09/03 07:58:14;;;;;;;6.50;4.30;;;;;;;12.86;82.45;96976.27;107909;1270;22638;-76
2022/09/03 08:00:45;;;;;;;7.80;4.80;;;;;;;12.85;81.95;96978.68;107852;1270;25343;-76
2022/09/03 08:03:17;;;;;;;9.90;4.80;;;;;;;12.86;82.22;96973.34;107947;1270;22634;-76
2022/09/03 08:05:49;;;;;;;8.20;5.90;;;;;;;12.93;82.02;96978.20;107914;1270;22609;-76
2022/09/03 08:08:22;;;;;;;9.30;5.70;;;;;;;12.98;81.92;96975.67;107886;1271;22791;-76
2022/09/03 08:10:54;;;;;;;5.80;4.20;;;;;;;13.01;81.92;96979.08;107838;1271;28706;-76
2022/09/03 08:13:25;;;;;;;9.60;5.20;;;;;;;13.07;81.49;96979.73;107876;1270;24256;-76
2022/09/03 08:15:59;;;;;;;15.50;6.80;;;;;;;13.15;81.74;96986.48;107864;1270;22535;-76
2022/09/03 08:18:36;;;;;;;10.00;5.80;;;;;;;13.21;81.52;96980.09;107945;1271;22548;-77
2022/09/03 08:21:13;;;;;;;11.90;5.20;;;;;;;13.18;81.79;96980.54;107799;1270;31154;-77
2022/09/03 08:23:46;;;;;;;10.00;5.60;;;;;;;13.44;82.56;96979.41;107849;1270;22717;-77
2022/09/03 08:26:19;;;;;;;7.50;4.40;;;;;;;13.64;81.65;96982.17;107848;1270;22553;-77
2022/09/03 08:28:53;;;;;;;5.90;4.60;;;;;;;13.79;81.29;96984.10;107903;1270;22653;-77
2022/09/03 08:31:26;;;;;;;7.30;4.30;;;;;;;13.90;80.72;96987.55;107794;1270;28385;-77
2022/09/03 08:34:00;;;;;;;9.00;5.00;;;;;;;14.07;80.98;96982.01;107864;1271;22636;-77
2022/09/03 08:36:33;;;;;;;6.40;4.10;;;;;;;14.22;80.72;96988.06;107918;1271;25335;-77
2022/09/03 08:39:08;;;;;;;5.40;4.50;;;;;;;14.20;79.31;96990.29;107842;1271;29546;-77
2022/09/03 08:42:07;;;;;;;8.20;4.60;;;;;;;14.01;78.95;96997.78;107928;1270;22563;-77
2022/09/03 08:44:46;;;;;;;7.20;5.40;;;;;;;13.92;79.18;96983.46;107904;1270;22541;-77
2022/09/03 08:47:21;;;;;;;7.90;5.10;;;;;;;13.91;79.34;96975.33;107920;1271;22622;-77
2022/09/03 08:49:58;;;;;;;8.00;5.00;;;;;;;14.28;80.39;96972.93;107838;1270;32032;-77
2022/09/03 08:52:33;;;;;;;6.40;4.90;;;;;;;15.12;80.81;96971.16;106703;1270;1597008;-78
2022/09/03 08:55:26;;;;;;;7.20;4.90;;;;;;;15.89;78.40;96968.51;107898;1271;22536;-76
2022/09/03 08:58:03;;;;;;;8.70;4.60;;;;;;;15.97;76.55;96963.68;107875;1271;23477;-76
2022/09/03 09:00:47;;;;;;;16.80;8.10;;;;;;;15.65;76.45;96965.34;107857;1271;26139;-77
2022/09/03 09:03:41;;;;;;;7.00;5.10;;;;;;;15.61;76.09;96962.89;107985;1270;25399;-76
2022/09/03 09:06:21;;;;;;;6.80;4.70;;;;;;;15.57;76.44;96959.98;108021;1271;22519;-76
2022/09/03 09:09:03;;;;;;;6.70;4.40;;;;;;;16.89;78.33;96963.59;107985;1270;22549;-76
2022/09/03 09:11:46;;;;;;;6.60;5.00;;;;;;;17.97;76.65;96966.98;107976;1271;25422;-76
2022/09/03 09:14:27;;;;;;;7.30;5.00;;;;;;;18.40;74.28;96966.02;107952;1268;22524;-76
2022/09/03 09:17:05;;;;;;;8.20;5.20;;;;;;;18.37;72.46;96970.09;107782;1271;22526;-77
2022/09/03 09:19:52;;;;;;;7.10;5.10;;;;;;;18.47;72.21;96970.64;107617;1271;27997;-77
2022/09/03 09:22:29;;;;;;;7.30;5.00;;;;;;;18.71;71.91;96974.98;107928;1271;22547;-76
2022/09/03 09:25:11;;;;;;;10.10;6.10;;;;;;;18.80;69.72;96981.44;107955;1268;22528;-76
2022/09/03 09:27:59;;;;;;;8.80;6.00;;;;;;;18.10;67.93;96984.73;107909;1271;25709;-77
2022/09/03 09:30:32;;;;;;;8.70;5.30;;;;;;;18.06;68.92;96985.33;107740;1271;31162;-77
2022/09/03 09:33:05;;;;;;;8.10;5.80;;;;;;;18.06;68.46;96984.57;107614;1271;22617;-76
2022/09/03 09:35:40;;;;;;;7.10;4.70;;;;;;;18.00;67.92;96983.26;107774;1270;22542;-78
2022/09/03 09:38:12;;;;;;;7.50;4.30;;;;;;;17.63;66.82;96977.73;107806;1271;22546;-76
2022/09/03 09:40:45;;;;;;;7.50;4.70;;;;;;;17.54;67.32;96978.65;107720;1271;27604;-77
2022/09/03 09:43:23;;;;;;;7.50;4.70;;;;;;;17.70;68.60;96981.71;107788;1270;23768;-76
2022/09/03 09:46:06;;;;;;;5.70;4.30;;;;;;;18.10;69.16;96983.90;107797;1270;22575;-76
2022/09/03 09:48:47;;;;;;;6.10;4.10;;;;;;;18.27;68.04;96984.16;107798;1271;22747;-77
2022/09/03 09:51:23;;;;;;;6.60;4.20;;;;;;;18.16;66.86;96985.38;107767;1271;26312;-77
2022/09/03 09:54:04;;;;;;;5.80;4.50;;;;;;;17.80;66.68;96982.34;107828;1271;22542;-77
2022/09/03 09:56:36;;;;;;;8.70;4.50;;;;;;;17.98;68.42;96981.52;107814;1268;22594;-76
2022/09/03 09:59:09;;;;;;;5.90;3.90;;;;;;;18.36;68.69;96976.89;107615;1271;30314;-77
2022/09/03 10:01:44;;;;;;;5.70;3.70;;;;;;;18.57;67.27;96977.45;107839;1271;22614;-77
2022/09/03 10:04:26;;;;;;;5.40;4.00;;;;;;;18.30;66.01;96979.45;107867;1271;24332;-77
2022/09/03 10:07:02;;;;;;;5.40;3.70;;;;;;;18.19;66.59;96976.01;107827;1271;23310;-77
2022/09/03 10:09:35;;;;;;;6.30;3.80;;;;;;;18.07;66.21;96972.67;107532;1271;25321;-77
2022/09/03 10:12:18;;;;;;;6.80;4.20;;;;;;;17.98;66.31;96973.71;107769;1271;22575;-76
2022/09/03 10:14:55;;;;;;;4.40;3.60;;;;;;;18.02;66.79;96972.96;108689;1269;22701;-76
2022/09/03 10:17:35;;;;;;;6.50;4.00;;;;;;;18.11;66.95;96971.91;107686;1268;22586;-76
2022/09/03 10:20:29;;;;;;;4.90;4.10;;;;;;;18.02;66.06;96962.76;107625;1268;26142;-76
2022/09/03 10:23:06;;;;;;;4.90;3.80;;;;;;;17.72;65.39;96961.67;107772;1271;22577;-77
2022/09/03 10:25:50;;;;;;;6.30;3.90;;;;;;;17.20;64.79;96960.81;107991;1271;25502;-77
2022/09/03 10:28:25;;;;;;;4.30;3.70;;;;;;;16.85;66.05;96958.78;108295;1268;22564;-77
2022/09/03 10:31:19;;;;;;;6.30;3.40;;;;;;;16.80;66.49;96955.08;107837;1268;28506;-77
2022/09/03 10:33:56;;;;;;;4.80;3.70;;;;;;;16.69;65.95;96964.94;107878;1269;22563;-77
2022/09/03 10:36:33;;;;;;;4.10;3.40;;;;;;;16.57;66.05;96967.11;107882;1268;22553;-77
2022/09/03 10:39:13;;;;;;;4.60;4.10;;;;;;;16.48;65.90;96968.64;107769;1271;42001;-77
2022/09/03 10:42:01;;;;;;;4.30;3.60;;;;;;;16.35;65.75;96978.39;107856;1269;22525;-76
2022/09/03 10:44:48;;;;;;;4.10;3.70;;;;;;;16.36;66.39;96982.95;107896;1270;22638;-76
2022/09/03 10:47:37;;;;;;;4.00;3.60;;;;;;;16.48;66.47;96983.89;107844;1270;22565;-76
2022/09/03 10:50:16;;;;;;;3.40;3.10;;;;;;;16.50;66.30;96979.83;107824;1270;23001;-76
2022/09/03 10:53:06;;;;;;;5.00;4.00;;;;;;;16.38;66.33;96984.36;107886;1271;22707;-76
2022/09/03 10:55:48;;;;;;;5.80;4.00;;;;;;;16.53;67.48;96978.39;107859;1270;22590;-77
2022/09/03 10:58:44;;;;;;;4.80;3.50;;;;;;;16.52;66.38;96982.81;107860;1270;24316;-76
2022/09/03 11:01:30;;;;;;;4.50;3.50;;;;;;;16.46;66.98;96979.08;107786;1269;31700;-76
2022/09/03 11:04:26;;;;;;;6.00;4.30;;;;;;;16.69;66.62;96978.70;107881;1270;22662;-76
2022/09/03 11:07:01;;;;;;;4.10;3.70;;;;;;;16.82;65.90;96977.23;107865;1270;25280;-76
2022/09/03 11:09:37;;;;;;;4.90;3.60;;;;;;;16.75;65.34;96969.30;107771;1270;31760;-76
2022/09/03 11:12:16;;;;;;;4.10;3.70;;;;;;;16.84;65.96;96964.23;107877;1269;22636;-76
2022/09/03 11:14:54;;;;;;;5.10;4.00;;;;;;;16.80;65.06;96972.69;107885;1270;23856;-77
2022/09/03 11:17:29;;;;;;;5.30;4.00;;;;;;;16.63;65.31;96972.16;107843;1270;25361;-77
2022/09/03 11:20:11;;;;;;;4.40;3.80;;;;;;;16.48;64.71;96970.17;107819;1270;34501;-77
2022/09/03 11:22:44;;;;;;;4.90;3.10;;;;;;;16.52;65.06;96973.07;107871;1270;22531;-77
2022/09/03 11:25:19;;;;;;;3.70;3.00;;;;;;;16.56;64.20;96975.44;107859;1269;23077;-77
2022/09/03 11:28:10;;;;;;;6.50;3.70;;;;;;;16.54;64.18;96968.48;107862;1270;25357;-76
2022/09/03 11:31:01;;;;;;;4.10;3.40;;;;;;;16.63;64.89;96967.72;107788;1270;30217;-77
2022/09/03 11:33:41;;;;;;;4.80;3.60;;;;;;;16.85;64.43;96963.50;107853;1269;22554;-77
2022/09/03 11:36:13;;;;;;;4.10;3.30;;;;;;;16.92;63.42;96959.48;107877;1268;25398;-76
2022/09/03 11:38:44;;;;;;;3.30;3.00;;;;;;;16.93;63.13;96959.30;107856;1270;23047;-77
2022/09/03 11:41:25;;;;;;;4.00;3.20;;;;;;;16.88;62.20;96957.52;107790;1270;30227;-76
2022/09/03 11:43:56;;;;;;;5.50;3.80;;;;;;;17.04;63.72;96949.02;107860;1270;22552;-76
2022/09/03 11:46:32;;;;;;;3.90;3.10;;;;;;;17.46;63.17;96947.77;107864;1269;24021;-77
2022/09/03 11:49:25;;;;;;;3.60;3.20;;;;;;;17.71;62.49;96951.81;107779;1270;31916;-78
2022/09/03 11:52:01;;;;;;;3.30;3.00;;;;;;;17.77;60.61;96953.13;107753;1271;23856;-77
2022/09/03 11:54:45;;;;;;;3.10;2.80;;;;;;;17.92;61.10;96953.11;107894;1270;22550;-77
2022/09/03 11:57:23;;;;;;;5.00;3.20;;;;;;;17.89;60.43;96952.92;107908;1270;22532;-77
2022/09/03 11:59:54;;;;;;;4.70;3.50;;;;;;;17.84;61.20;96949.55;107813;1270;30026;-78
2022/09/03 12:02:32;;;;;;;3.90;3.50;;;;;;;17.80;61.55;96949.65;107805;1270;22653;-78
2022/09/03 12:05:23;;;;;;;6.20;4.10;;;;;;;17.73;60.83;96945.16;107822;1267;22572;-77
2022/09/03 12:08:16;;;;;;;4.10;3.30;;;;;;;17.56;61.81;96940.77;107845;1268;22565;-78
2022/09/03 12:10:57;;;;;;;3.20;2.90;;;;;;;17.51;61.90;96938.67;107811;1270;28083;-75
2022/09/03 12:13:46;;;;;;;2.80;2.40;;;;;;;17.43;61.62;96937.96;107858;1270;23793;-77